createdAt,value
2023-03-28T00:00:18.543Z,0.57
2023-03-28T00:02:45.411Z,0.64
2023-03-28T00:05:11.999Z,0.64
2023-03-28T00:07:39.680Z,0.61
2023-03-28T00:10:07.237Z,0.64
2023-03-28T00:12:33.709Z,0.51
2023-03-28T00:15:00.845Z,0.46
2023-03-28T00:17:27.371Z,0.48
2023-03-28T00:19:53.846Z,0.52
2023-03-28T00:22:20.844Z,0.66
2023-03-28T00:24:48.802Z,0.72
2023-03-28T00:27:15.913Z,0.74
2023-03-28T00:29:42.492Z,0.80
2023-03-28T00:32:08.985Z,0.87
2023-03-28T00:34:35.549Z,0.81
2023-03-28T00:37:05.441Z,0.85
2023-03-28T00:39:34.490Z,0.85
2023-03-28T00:42:04.120Z,0.87
2023-03-28T00:44:53.516Z,0.95
2023-03-28T00:47:36.767Z,0.88
2023-03-28T00:50:07.397Z,0.88
2023-03-28T00:52:46.547Z,0.85
2023-03-28T00:55:16.567Z,0.76
2023-03-28T00:57:44.591Z,0.81
2023-03-28T01:00:16.880Z,0.76
2023-03-28T01:03:40.286Z,0.69
2023-03-28T01:06:07.400Z,0.61
2023-03-28T01:08:35.254Z,0.50
2023-03-28T01:11:02.065Z,0.55
2023-03-28T01:13:31.473Z,0.51
2023-03-28T01:15:59.523Z,0.58
2023-03-28T01:18:26.129Z,0.54
2023-03-28T01:21:03.749Z,0.61
2023-03-28T01:24:11.555Z,0.67
2023-03-28T01:26:59.018Z,0.63
2023-03-28T01:29:25.476Z,0.69
2023-03-28T01:32:16.200Z,0.70
2023-03-28T01:35:18.713Z,0.72
2023-03-28T01:38:05.981Z,0.55
2023-03-28T01:40:45.158Z,0.61
2023-03-28T01:43:36.823Z,0.52
2023-03-28T01:46:23.519Z,0.43
2023-03-28T01:49:08.426Z,0.52
2023-03-28T01:51:57.144Z,0.34
2023-03-28T01:54:29.133Z,0.23
2023-03-28T01:57:07.321Z,0.23
2023-03-28T01:59:49.555Z,0.34
2023-03-28T02:02:36.859Z,0.30
2023-03-28T02:05:06.595Z,0.38
2023-03-28T02:07:33.826Z,0.33
2023-03-28T02:10:00.923Z,0.30
2023-03-28T02:12:30.978Z,0.29
2023-03-28T02:14:57.385Z,0.24
2023-03-28T02:17:24.439Z,0.24
2023-03-28T02:19:55.084Z,0.25
2023-03-28T02:22:25.776Z,0.33
2023-03-28T02:24:52.328Z,0.31
2023-03-28T02:27:19.818Z,0.21
2023-03-28T02:29:47.853Z,0.20
2023-03-28T02:32:14.748Z,0.17
2023-03-28T02:34:43.130Z,0.19
2023-03-28T02:37:19.251Z,0.18
2023-03-28T02:39:52.648Z,0.30
2023-03-28T02:42:34.420Z,0.29
2023-03-28T02:45:32.952Z,0.28
2023-03-28T02:48:31.793Z,0.35
2023-03-28T02:50:58.093Z,0.31
2023-03-28T02:53:49.101Z,0.33
2023-03-28T02:56:41.740Z,0.31
2023-03-28T02:59:12.217Z,0.30
2023-03-28T03:01:40.907Z,0.29
2023-03-28T03:04:08.035Z,0.15
2023-03-28T03:06:35.220Z,0.22
2023-03-28T03:09:01.695Z,0.06
2023-03-28T03:11:28.804Z,-0.04
2023-03-28T03:13:55.575Z,0.10
2023-03-28T03:16:23.763Z,0.01
2023-03-28T03:18:50.286Z,0.21
2023-03-28T03:21:16.768Z,0.19
2023-03-28T03:23:43.264Z,0.15
2023-03-28T03:26:09.788Z,0.10
2023-03-28T03:28:36.244Z,0.19
2023-03-28T03:31:02.758Z,0.13
2023-03-28T03:33:30.590Z,0.16
2023-03-28T03:35:59.039Z,0.17
2023-03-28T03:38:26.134Z,0.16
2023-03-28T03:40:52.646Z,0.07
2023-03-28T03:43:19.154Z,0.18
2023-03-28T03:45:45.896Z,0.21
2023-03-28T03:48:12.457Z,0.29
2023-03-28T03:50:39.373Z,0.29
2023-03-28T03:53:05.842Z,0.31
2023-03-28T03:55:32.564Z,0.22
2023-03-28T03:58:00.013Z,0.31
2023-03-28T04:00:27.090Z,0.34
2023-03-28T04:02:53.671Z,0.30
2023-03-28T04:05:20.237Z,0.28
2023-03-28T04:07:46.772Z,0.29
2023-03-28T04:10:13.253Z,0.29
2023-03-28T04:12:39.709Z,0.34
2023-03-28T04:15:06.944Z,0.31
2023-03-28T04:17:35.044Z,0.26
2023-03-28T04:20:02.290Z,0.33
2023-03-28T04:22:29.916Z,0.35
2023-03-28T04:25:01.585Z,0.24
2023-03-28T04:27:31.286Z,0.22
2023-03-28T04:29:58.163Z,0.42
2023-03-28T04:32:24.672Z,0.28
2023-03-28T04:34:51.137Z,0.23
2023-03-28T04:37:18.130Z,0.26
2023-03-28T04:39:47.376Z,0.17
2023-03-28T04:42:14.656Z,0.26
2023-03-28T04:44:41.116Z,0.27
2023-03-28T04:47:13.374Z,0.15
2023-03-28T04:49:39.857Z,0.02
2023-03-28T04:52:06.439Z,-0.07
2023-03-28T04:54:32.908Z,-0.15
2023-03-28T04:56:59.452Z,-0.04
2023-03-28T04:59:25.962Z,-0.04
2023-03-28T05:01:52.469Z,-0.11
2023-03-28T05:04:19.372Z,-0.06
2023-03-28T05:06:46.317Z,-0.01
2023-03-28T05:09:12.844Z,-0.04
2023-03-28T05:11:39.687Z,-0.01
2023-03-28T05:14:06.264Z,-0.08
2023-03-28T05:16:32.822Z,-0.10
2023-03-28T05:18:59.357Z,-0.09
2023-03-28T05:21:25.872Z,-0.02
2023-03-28T05:23:52.384Z,0.03
2023-03-28T05:26:19.301Z,0.13
2023-03-28T05:28:46.095Z,0.02
2023-03-28T05:31:12.925Z,0.07
2023-03-28T05:33:39.390Z,0.10
2023-03-28T05:36:06.186Z,0.23
2023-03-28T05:38:33.605Z,0.30
2023-03-28T05:41:00.237Z,0.24
2023-03-28T05:43:26.958Z,0.30
2023-03-28T05:45:53.483Z,0.31
2023-03-28T05:48:20.069Z,0.37
2023-03-28T05:50:47.975Z,0.32
2023-03-28T05:53:14.441Z,0.41
2023-03-28T05:55:41.477Z,0.42
2023-03-28T05:58:08.044Z,0.49
2023-03-28T06:00:34.562Z,0.43
2023-03-28T06:03:01.397Z,0.45
2023-03-28T06:05:27.966Z,0.51
2023-03-28T06:07:54.440Z,0.51
2023-03-28T06:10:21.039Z,0.45
2023-03-28T06:12:47.525Z,0.46
2023-03-28T06:15:13.986Z,0.53
2023-03-28T06:17:40.488Z,0.59
2023-03-28T06:20:09.620Z,0.63
2023-03-28T06:22:37.525Z,0.66
2023-03-28T06:25:04.930Z,0.60
2023-03-28T06:27:31.850Z,0.48
2023-03-28T06:29:59.899Z,0.42
2023-03-28T06:32:27.997Z,0.56
2023-03-28T06:34:54.515Z,0.50
2023-03-28T06:37:21.132Z,0.47
2023-03-28T06:39:50.707Z,0.54
2023-03-28T06:42:17.453Z,0.52
2023-03-28T06:44:43.929Z,0.49
2023-03-28T06:47:10.498Z,0.51
2023-03-28T06:49:36.965Z,0.55
2023-03-28T06:52:03.670Z,0.57
2023-03-28T06:54:30.188Z,0.67
2023-03-28T06:56:56.693Z,0.84
2023-03-28T06:59:23.242Z,0.89
2023-03-28T07:01:49.773Z,0.98
2023-03-28T07:04:16.289Z,0.90
2023-03-28T07:06:42.835Z,0.91
2023-03-28T07:09:09.339Z,0.95
2023-03-28T07:11:35.955Z,0.93
2023-03-28T07:14:02.495Z,0.82
2023-03-28T07:16:29.047Z,0.92
2023-03-28T07:18:55.738Z,0.89
2023-03-28T07:21:22.501Z,0.99
2023-03-28T07:23:48.964Z,1.05
2023-03-28T07:26:15.745Z,1.15
2023-03-28T07:28:42.369Z,1.12
2023-03-28T07:31:09.376Z,1.28
2023-03-28T07:33:38.263Z,1.42
2023-03-28T07:36:09.796Z,1.25
2023-03-28T07:38:36.706Z,1.23
2023-03-28T07:41:03.714Z,1.37
2023-03-28T07:43:30.415Z,1.41
2023-03-28T07:46:02.120Z,1.59
2023-03-28T07:48:29.200Z,1.72
2023-03-28T07:50:55.693Z,1.85
2023-03-28T07:53:22.154Z,2.16
2023-03-28T07:55:55.288Z,2.36
2023-03-28T07:58:22.339Z,2.57
2023-03-28T08:00:48.801Z,2.70
2023-03-28T08:03:16.264Z,2.90
2023-03-28T08:05:43.477Z,3.02
2023-03-28T08:08:09.979Z,3.17
2023-03-28T08:10:36.926Z,2.93
2023-03-28T08:13:03.440Z,2.99
2023-03-28T08:15:30.040Z,3.25
2023-03-28T08:17:56.543Z,3.58
2023-03-28T08:20:23.081Z,3.75
2023-03-28T08:22:49.578Z,3.60
2023-03-28T08:25:16.055Z,3.40
2023-03-28T08:27:42.570Z,3.81
2023-03-28T08:30:10.690Z,4.06
2023-03-28T08:32:37.242Z,4.16
2023-03-28T08:35:03.862Z,4.45
2023-03-28T08:37:31.342Z,4.62
2023-03-28T08:39:58.955Z,4.48
2023-03-28T08:42:40.905Z,4.14
2023-03-28T08:45:43.803Z,4.36
2023-03-28T08:48:27.098Z,4.62
2023-03-28T08:51:01.759Z,4.67
2023-03-28T08:53:39.014Z,4.88
2023-03-28T08:56:07.127Z,4.38
2023-03-28T08:59:05.283Z,4.02
2023-03-28T09:01:32.943Z,4.10
2023-03-28T09:04:00.540Z,4.50
2023-03-28T09:06:40.800Z,4.85
2023-03-28T09:09:13.179Z,5.47
2023-03-28T09:12:16.307Z,5.97
2023-03-28T09:15:12.205Z,4.62
2023-03-28T09:18:02.483Z,4.24
2023-03-28T09:20:31.863Z,4.18
2023-03-28T09:23:17.064Z,4.33
2023-03-28T09:25:51.990Z,4.46
2023-03-28T09:28:36.855Z,4.74
2023-03-28T09:31:03.453Z,4.56
2023-03-28T09:33:35.641Z,4.04
2023-03-28T09:36:03.077Z,3.79
2023-03-28T09:38:40.301Z,3.51
2023-03-28T09:41:12.582Z,4.37
2023-03-28T09:43:47.402Z,4.84
2023-03-28T09:46:16.701Z,4.86
2023-03-28T09:48:43.366Z,4.64
2023-03-28T09:51:18.944Z,4.90
2023-03-28T09:53:45.444Z,5.33
2023-03-28T09:56:24.309Z,5.94
2023-03-28T09:58:52.456Z,5.14
2023-03-28T10:01:37.222Z,4.64
2023-03-28T10:04:15.463Z,4.39
2023-03-28T10:06:42.426Z,4.36
2023-03-28T10:09:27.207Z,5.11
2023-03-28T10:11:59.258Z,5.19
2023-03-28T10:14:29.960Z,5.51
2023-03-28T10:16:57.501Z,5.71
2023-03-28T10:19:24.809Z,5.77
2023-03-28T10:21:51.432Z,6.08
2023-03-28T10:24:20.752Z,5.93
2023-03-28T10:26:47.337Z,5.16
2023-03-28T10:29:13.827Z,4.92
2023-03-28T10:31:41.499Z,4.81
2023-03-28T10:34:10.216Z,5.19
2023-03-28T10:36:46.019Z,5.68
2023-03-28T10:39:25.410Z,5.64
2023-03-28T10:41:56.199Z,5.39
2023-03-28T10:44:27.127Z,5.58
2023-03-28T10:46:54.128Z,5.44
2023-03-28T10:49:20.836Z,5.28
2023-03-28T10:51:47.304Z,5.97
2023-03-28T10:54:23.955Z,6.11
2023-03-28T10:56:55.321Z,6.91
2023-03-28T10:59:38.010Z,7.19
2023-03-28T11:02:24.416Z,6.50
2023-03-28T11:05:01.929Z,6.06
2023-03-28T11:07:50.339Z,5.76
2023-03-28T11:10:22.212Z,5.42
2023-03-28T11:13:02.746Z,5.53
2023-03-28T11:16:07.818Z,5.85
2023-03-28T11:18:49.816Z,6.98
2023-03-28T11:21:48.565Z,7.14
2023-03-28T11:24:30.601Z,6.95
2023-03-28T11:27:16.433Z,6.59
2023-03-28T11:29:53.872Z,7.03
2023-03-28T11:32:27.389Z,7.92
2023-03-28T11:35:05.635Z,8.06
2023-03-28T11:37:37.620Z,7.98
2023-03-28T11:40:27.508Z,8.01
2023-03-28T11:43:00.404Z,7.89
2023-03-28T11:45:50.159Z,6.82
2023-03-28T11:48:28.626Z,7.00
2023-03-28T11:51:24.373Z,6.53
2023-03-28T11:53:53.512Z,6.54
2023-03-28T11:56:46.163Z,6.12
2023-03-28T11:59:15.422Z,6.02
2023-03-28T12:01:47.500Z,6.14
2023-03-28T12:04:23.915Z,6.68
2023-03-28T12:07:18.408Z,7.88
2023-03-28T12:09:55.645Z,7.89
2023-03-28T12:12:33.862Z,6.76
2023-03-28T12:15:05.236Z,6.38
2023-03-28T12:17:38.736Z,6.30
2023-03-28T12:20:13.159Z,6.10
2023-03-28T12:23:01.499Z,6.17
2023-03-28T12:25:35.225Z,6.08
2023-03-28T12:28:11.027Z,6.05
2023-03-28T12:30:58.745Z,6.19
2023-03-28T12:33:52.115Z,6.20
2023-03-28T12:36:39.325Z,6.52
2023-03-28T12:39:34.948Z,6.58
2023-03-28T12:42:05.568Z,6.75
2023-03-28T12:44:49.433Z,6.87
2023-03-28T12:47:18.276Z,7.21
2023-03-28T12:49:48.266Z,6.99
2023-03-28T12:52:24.308Z,7.01
2023-03-28T12:55:01.877Z,6.90
2023-03-28T12:57:40.960Z,6.93
2023-03-28T13:00:26.608Z,6.93
2023-03-28T13:03:36.952Z,7.24
2023-03-28T13:06:12.052Z,5.88
2023-03-28T13:08:57.251Z,6.37
2023-03-28T13:12:01.295Z,6.72
2023-03-28T13:14:42.328Z,6.44
2023-03-28T13:17:20.613Z,6.45
2023-03-28T13:19:53.224Z,6.10
2023-03-28T13:22:32.860Z,6.62
2023-03-28T13:25:26.168Z,6.99
2023-03-28T13:27:57.245Z,7.27
2023-03-28T13:30:28.698Z,7.00
2023-03-28T13:33:21.135Z,6.91
2023-03-28T13:35:49.254Z,6.39
2023-03-28T13:38:24.321Z,6.71
2023-03-28T13:41:01.888Z,7.12
2023-03-28T13:43:48.325Z,7.63
2023-03-28T13:46:19.556Z,8.10
2023-03-28T13:49:06.572Z,7.30
2023-03-28T13:51:42.237Z,7.47
2023-03-28T13:54:12.656Z,6.78
2023-03-28T13:56:44.552Z,6.74
2023-03-28T13:59:37.693Z,6.90
2023-03-28T14:02:18.412Z,6.78
2023-03-28T14:04:55.914Z,6.64
2023-03-28T14:07:28.755Z,6.73
2023-03-28T14:09:56.572Z,6.91
2023-03-28T14:12:24.806Z,7.68
2023-03-28T14:14:52.779Z,8.14
2023-03-28T14:17:27.223Z,8.42
2023-03-28T14:20:01.921Z,8.09
2023-03-28T14:22:29.121Z,7.73
2023-03-28T14:25:03.274Z,7.29
2023-03-28T14:27:39.672Z,6.76
2023-03-28T14:30:25.584Z,7.00
2023-03-28T14:33:07.805Z,6.79
2023-03-28T14:35:35.301Z,6.60
2023-03-28T14:38:03.694Z,6.92
2023-03-28T14:40:31.558Z,7.12
2023-03-28T14:43:05.303Z,7.36
2023-03-28T14:45:35.020Z,7.46
2023-03-28T14:48:01.916Z,7.38
2023-03-28T14:50:33.170Z,7.12
2023-03-28T14:53:08.033Z,7.23
2023-03-28T14:55:36.742Z,7.06
2023-03-28T14:58:03.455Z,7.12
2023-03-28T15:00:36.398Z,7.05
2023-03-28T15:03:04.230Z,6.87
2023-03-28T15:05:30.760Z,6.98
2023-03-28T15:08:01.840Z,7.05
2023-03-28T15:10:28.500Z,7.01
2023-03-28T15:13:14.117Z,6.89
2023-03-28T15:15:45.140Z,7.01
2023-03-28T15:18:14.459Z,7.04
2023-03-28T15:20:43.129Z,7.29
2023-03-28T15:23:15.499Z,7.27
2023-03-28T15:25:42.773Z,7.67
2023-03-28T15:28:10.546Z,7.60
2023-03-28T15:30:41.375Z,7.25
2023-03-28T15:33:07.896Z,7.44
2023-03-28T15:35:39.043Z,7.17
2023-03-28T15:38:08.320Z,7.16
2023-03-28T15:40:40.046Z,7.08
2023-03-28T15:43:07.135Z,6.98
2023-03-28T15:45:40.616Z,6.65
2023-03-28T15:48:13.670Z,6.69
2023-03-28T15:50:40.190Z,6.68
2023-03-28T15:53:11.159Z,6.90
2023-03-28T15:55:37.630Z,6.77
2023-03-28T15:58:04.113Z,6.68
2023-03-28T16:00:42.116Z,6.69
2023-03-28T16:03:19.733Z,6.71
2023-03-28T16:06:01.809Z,6.71
2023-03-28T16:08:35.089Z,6.59
2023-03-28T16:11:02.259Z,6.63
2023-03-28T16:13:29.496Z,6.68
2023-03-28T16:15:56.064Z,6.65
2023-03-28T16:18:22.617Z,6.61
2023-03-28T16:20:49.116Z,6.53
2023-03-28T16:23:15.677Z,6.67
2023-03-28T16:25:42.372Z,6.56
2023-03-28T16:28:13.223Z,6.45
2023-03-28T16:30:43.001Z,6.53
2023-03-28T16:33:09.719Z,6.65
2023-03-28T16:35:36.338Z,6.60
2023-03-28T16:38:02.845Z,6.60
2023-03-28T16:40:29.416Z,6.56
2023-03-28T16:42:56.009Z,6.40
2023-03-28T16:45:23.041Z,6.24
2023-03-28T16:47:49.583Z,6.27
2023-03-28T16:50:16.495Z,6.28
2023-03-28T16:52:42.997Z,6.31
2023-03-28T16:55:11.071Z,6.24
2023-03-28T16:57:37.574Z,6.27
2023-03-28T17:00:05.498Z,6.16
2023-03-28T17:02:32.273Z,6.19
2023-03-28T17:04:58.815Z,6.21
2023-03-28T17:07:25.602Z,6.09
2023-03-28T17:09:52.382Z,6.14
2023-03-28T17:12:20.407Z,6.05
2023-03-28T17:14:47.308Z,6.10
2023-03-28T17:17:13.802Z,6.15
2023-03-28T17:19:40.374Z,6.19
2023-03-28T17:22:07.455Z,6.21
2023-03-28T17:24:34.085Z,6.23
2023-03-28T17:27:00.803Z,6.20
2023-03-28T17:29:27.558Z,5.99
2023-03-28T17:31:54.312Z,6.00
2023-03-28T17:34:21.521Z,5.86
2023-03-28T17:36:48.905Z,5.78
2023-03-28T17:39:15.507Z,5.75
2023-03-28T17:41:42.460Z,5.72
2023-03-28T17:44:09.373Z,5.68
2023-03-28T17:46:36.817Z,5.72
2023-03-28T17:49:03.309Z,5.68
2023-03-28T17:51:29.789Z,5.65
2023-03-28T17:53:56.548Z,5.59
2023-03-28T17:56:24.196Z,5.52
2023-03-28T17:58:50.672Z,5.64
2023-03-28T18:01:18.371Z,5.61
2023-03-28T18:03:46.071Z,5.64
2023-03-28T18:06:13.249Z,5.51
2023-03-28T18:08:42.579Z,5.60
2023-03-28T18:11:10.839Z,5.58
2023-03-28T18:13:37.792Z,5.58
2023-03-28T18:16:05.390Z,5.60
2023-03-28T18:18:32.831Z,5.63
2023-03-28T18:20:59.304Z,5.59
2023-03-28T18:23:25.758Z,5.64
2023-03-28T18:25:52.442Z,5.55
2023-03-28T18:28:23.361Z,5.49
2023-03-28T18:30:51.098Z,5.50
2023-03-28T18:33:18.283Z,5.53
2023-03-28T18:35:48.192Z,5.41
2023-03-28T18:38:15.393Z,5.38
2023-03-28T18:40:41.974Z,5.43
2023-03-28T18:43:09.393Z,5.49
2023-03-28T18:45:36.052Z,5.38
2023-03-28T18:48:02.617Z,5.30
2023-03-28T18:50:29.666Z,5.25
2023-03-28T18:52:57.346Z,5.42
2023-03-28T18:55:24.417Z,5.32
2023-03-28T18:57:52.459Z,5.09
2023-03-28T19:00:19.427Z,5.00
2023-03-28T19:02:46.451Z,4.96
2023-03-28T19:05:15.124Z,4.99
2023-03-28T19:07:46.222Z,5.02
2023-03-28T19:10:13.422Z,5.02
2023-03-28T19:12:40.493Z,4.99
2023-03-28T19:15:08.406Z,4.89
2023-03-28T19:17:35.587Z,4.93
2023-03-28T19:20:07.839Z,4.95
2023-03-28T19:22:35.367Z,4.88
2023-03-28T19:25:02.062Z,4.85
2023-03-28T19:27:28.531Z,4.84
2023-03-28T19:29:55.203Z,4.78
2023-03-28T19:32:21.684Z,4.82
2023-03-28T19:34:48.152Z,4.92
2023-03-28T19:37:14.728Z,4.58
2023-03-28T19:39:41.258Z,4.63
2023-03-28T19:42:07.758Z,4.65
2023-03-28T19:44:34.265Z,4.69
2023-03-28T19:47:00.772Z,4.63
2023-03-28T19:49:27.273Z,4.50
2023-03-28T19:51:54.593Z,4.38
2023-03-28T19:54:21.460Z,4.40
2023-03-28T19:56:48.625Z,4.47
2023-03-28T19:59:15.138Z,4.50
2023-03-28T20:01:41.663Z,4.68
2023-03-28T20:04:08.254Z,4.58
2023-03-28T20:06:34.821Z,4.56
2023-03-28T20:09:01.644Z,4.52
2023-03-28T20:11:28.961Z,4.57
2023-03-28T20:13:55.421Z,4.56
2023-03-28T20:16:21.978Z,4.64
2023-03-28T20:18:48.526Z,4.52
2023-03-28T20:21:15.079Z,4.66
2023-03-28T20:23:41.628Z,4.70
2023-03-28T20:26:19.190Z,4.65
2023-03-28T20:28:49.246Z,4.73
2023-03-28T20:31:16.812Z,4.74
2023-03-28T20:33:43.605Z,4.75
2023-03-28T20:36:10.104Z,4.62
2023-03-28T20:38:36.636Z,4.67
2023-03-28T20:41:03.287Z,4.65
2023-03-28T20:43:29.994Z,4.79
2023-03-28T20:46:03.154Z,4.70
2023-03-28T20:48:36.621Z,4.78
2023-03-28T20:51:22.292Z,4.76
2023-03-28T20:53:54.939Z,4.76
2023-03-28T20:56:21.653Z,4.84
2023-03-28T20:58:48.389Z,4.86
2023-03-28T21:01:16.425Z,4.82
2023-03-28T21:03:49.707Z,4.76
2023-03-28T21:06:17.571Z,4.77
2023-03-28T21:08:49.468Z,4.70
2023-03-28T21:11:17.249Z,4.65
2023-03-28T21:13:45.950Z,4.74
2023-03-28T21:16:14.247Z,4.70
2023-03-28T21:18:41.127Z,4.67
2023-03-28T21:21:09.515Z,4.77
2023-03-28T21:23:39.370Z,4.69
2023-03-28T21:26:06.943Z,4.76
2023-03-28T21:28:34.666Z,4.68
2023-03-28T21:31:07.719Z,4.78
2023-03-28T21:33:34.194Z,4.77
2023-03-28T21:36:00.755Z,4.73
2023-03-28T21:38:27.419Z,4.67
2023-03-28T21:40:53.891Z,4.72
2023-03-28T21:43:20.592Z,4.70
2023-03-28T21:45:47.736Z,4.71
2023-03-28T21:48:14.647Z,4.71
2023-03-28T21:50:41.436Z,4.63
2023-03-28T21:53:08.907Z,4.63
2023-03-28T21:55:35.565Z,4.62
2023-03-28T21:58:02.591Z,4.57
2023-03-28T22:00:29.060Z,4.60
2023-03-28T22:02:55.919Z,4.63
2023-03-28T22:05:29.162Z,4.57
2023-03-28T22:07:56.519Z,4.58
2023-03-28T22:10:26.461Z,4.65
2023-03-28T22:12:58.825Z,4.65
2023-03-28T22:15:25.542Z,4.63
2023-03-28T22:17:57.856Z,4.54
2023-03-28T22:20:25.975Z,4.50
2023-03-28T22:22:52.646Z,4.48
2023-03-28T22:25:19.096Z,4.45
2023-03-28T22:27:45.589Z,4.38
2023-03-28T22:30:12.385Z,4.35
2023-03-28T22:32:38.971Z,4.29
2023-03-28T22:35:06.024Z,4.36
2023-03-28T22:37:33.116Z,4.42
2023-03-28T22:39:59.599Z,4.42
2023-03-28T22:42:26.387Z,4.42
2023-03-28T22:44:53.434Z,4.30
2023-03-28T22:47:19.925Z,4.29
2023-03-28T22:49:46.413Z,4.30
2023-03-28T22:52:13.608Z,4.39
2023-03-28T22:54:42.525Z,4.25
2023-03-28T22:57:09.132Z,4.28
2023-03-28T22:59:36.376Z,4.28
2023-03-28T23:02:03.034Z,4.28
2023-03-28T23:04:29.732Z,4.29
2023-03-28T23:06:56.375Z,4.33
2023-03-28T23:09:26.543Z,4.15
2023-03-28T23:11:54.955Z,4.27
2023-03-28T23:14:22.073Z,4.42
2023-03-28T23:16:48.799Z,4.14
2023-03-28T23:19:16.354Z,4.07
2023-03-28T23:21:43.029Z,3.83
2023-03-28T23:24:09.672Z,3.89
2023-03-28T23:26:36.159Z,4.06
2023-03-28T23:29:02.762Z,3.88
2023-03-28T23:31:29.278Z,3.78
2023-03-28T23:33:55.885Z,3.73
2023-03-28T23:36:22.372Z,3.82
2023-03-28T23:38:48.842Z,3.52
2023-03-28T23:41:15.485Z,3.44
2023-03-28T23:43:41.978Z,3.62
2023-03-28T23:46:09.043Z,3.64
2023-03-28T23:48:36.214Z,3.68
2023-03-28T23:51:03.060Z,3.72
2023-03-28T23:53:29.791Z,3.87
2023-03-28T23:55:56.293Z,3.80
2023-03-28T23:58:22.789Z,3.89
